createdAt,value
2022-10-31T00:01:02.366Z,12.46
2022-10-31T00:03:28.907Z,12.44
2022-10-31T00:05:55.459Z,12.45
2022-10-31T00:08:21.993Z,12.47
2022-10-31T00:10:48.507Z,12.50
2022-10-31T00:13:15.538Z,12.52
2022-10-31T00:15:42.336Z,12.54
2022-10-31T00:18:10.426Z,12.54
2022-10-31T00:20:37.839Z,12.55
2022-10-31T00:23:05.687Z,12.56
2022-10-31T00:25:36.873Z,12.59
2022-10-31T00:28:04.995Z,12.59
2022-10-31T00:30:31.693Z,12.62
2022-10-31T00:32:58.443Z,12.62
2022-10-31T00:35:25.321Z,12.64
2022-10-31T00:37:53.581Z,12.63
2022-10-31T00:40:20.150Z,12.64
2022-10-31T00:42:46.739Z,12.64
2022-10-31T00:45:13.446Z,12.63
2022-10-31T00:47:39.929Z,12.62
2022-10-31T00:50:07.308Z,12.64
2022-10-31T00:52:33.883Z,12.66
2022-10-31T00:55:00.425Z,12.66
2022-10-31T00:57:27.069Z,12.61
2022-10-31T00:59:53.666Z,12.56
2022-10-31T01:02:20.368Z,12.55
2022-10-31T01:04:47.037Z,12.56
2022-10-31T01:07:15.049Z,12.59
2022-10-31T01:09:42.204Z,12.59
2022-10-31T01:12:09.214Z,12.62
2022-10-31T01:14:35.733Z,12.63
2022-10-31T01:17:02.372Z,12.64
2022-10-31T01:19:30.312Z,12.61
2022-10-31T01:21:56.816Z,12.61
2022-10-31T01:24:23.595Z,12.64
2022-10-31T01:26:50.118Z,12.65
2022-10-31T01:29:16.661Z,12.65
2022-10-31T01:31:43.185Z,12.63
2022-10-31T01:34:14.683Z,12.59
2022-10-31T01:36:42.148Z,12.61
2022-10-31T01:39:12.108Z,12.62
2022-10-31T01:41:41.367Z,12.64
2022-10-31T01:44:16.896Z,12.65
2022-10-31T01:46:54.932Z,12.64
2022-10-31T01:49:38.464Z,12.56
2022-10-31T01:52:11.354Z,12.53
2022-10-31T01:54:46.572Z,12.51
2022-10-31T01:57:15.646Z,12.49
2022-10-31T01:59:48.430Z,12.49
2022-10-31T02:02:18.033Z,12.52
2022-10-31T02:04:45.839Z,12.56
2022-10-31T02:07:17.198Z,12.61
2022-10-31T02:09:46.090Z,12.68
2022-10-31T02:12:13.569Z,12.72
2022-10-31T02:14:41.511Z,12.74
2022-10-31T02:17:08.095Z,12.74
2022-10-31T02:20:01.864Z,12.72
2022-10-31T02:22:43.233Z,12.72
2022-10-31T02:25:37.597Z,12.71
2022-10-31T02:28:22.409Z,12.73
2022-10-31T02:31:07.731Z,12.76
2022-10-31T02:33:34.199Z,12.77
2022-10-31T02:36:33.936Z,12.78
2022-10-31T02:39:30.121Z,12.80
2022-10-31T02:41:59.400Z,12.87
2022-10-31T02:44:44.037Z,12.86
2022-10-31T02:47:15.120Z,12.88
2022-10-31T02:49:46.694Z,12.87
2022-10-31T02:52:25.668Z,12.82
2022-10-31T02:54:52.599Z,12.79
2022-10-31T02:57:25.744Z,12.76
2022-10-31T02:59:58.736Z,12.76
2022-10-31T03:02:46.512Z,12.74
2022-10-31T03:05:22.417Z,12.75
2022-10-31T03:07:55.032Z,12.75
2022-10-31T03:10:37.317Z,12.73
2022-10-31T03:13:09.843Z,12.65
2022-10-31T03:15:41.537Z,12.67
2022-10-31T03:18:16.209Z,12.65
2022-10-31T03:20:55.726Z,12.66
2022-10-31T03:23:24.177Z,12.66
2022-10-31T03:25:53.469Z,12.65
2022-10-31T03:28:26.578Z,12.65
2022-10-31T03:30:54.618Z,12.65
2022-10-31T03:33:28.276Z,12.65
2022-10-31T03:35:59.392Z,12.65
2022-10-31T03:38:26.999Z,12.63
2022-10-31T03:40:57.029Z,12.60
2022-10-31T03:43:30.139Z,12.58
2022-10-31T03:45:57.419Z,12.56
2022-10-31T03:48:24.775Z,12.55
2022-10-31T03:51:09.945Z,12.54
2022-10-31T03:53:45.015Z,12.51
2022-10-31T03:56:34.765Z,12.47
2022-10-31T03:59:03.483Z,12.47
2022-10-31T04:01:33.236Z,12.47
2022-10-31T04:04:01.162Z,12.46
2022-10-31T04:06:28.858Z,12.44
2022-10-31T04:09:01.567Z,12.42
2022-10-31T04:11:32.517Z,12.44
2022-10-31T04:14:02.636Z,12.45
2022-10-31T04:16:29.553Z,12.47
2022-10-31T04:18:57.337Z,12.46
2022-10-31T04:21:31.488Z,12.44
2022-10-31T04:23:58.442Z,12.45
2022-10-31T04:26:25.047Z,12.46
2022-10-31T04:28:51.580Z,12.46
2022-10-31T04:31:18.541Z,12.46
2022-10-31T04:33:45.103Z,12.47
2022-10-31T04:36:11.793Z,12.49
2022-10-31T04:38:38.423Z,12.52
2022-10-31T04:41:05.091Z,12.54
2022-10-31T04:43:31.621Z,12.57
2022-10-31T04:45:58.145Z,12.60
2022-10-31T04:48:24.662Z,12.61
2022-10-31T04:50:51.156Z,12.61
2022-10-31T04:53:17.682Z,12.59
2022-10-31T04:55:44.198Z,12.55
2022-10-31T04:58:10.759Z,12.53
2022-10-31T05:00:37.308Z,12.48
2022-10-31T05:03:04.030Z,12.45
2022-10-31T05:05:32.195Z,12.43
2022-10-31T05:07:58.832Z,12.39
2022-10-31T05:10:28.375Z,12.35
2022-10-31T05:13:00.372Z,12.29
2022-10-31T05:15:28.340Z,12.24
2022-10-31T05:17:55.535Z,12.21
2022-10-31T05:20:25.052Z,12.20
2022-10-31T05:22:53.902Z,12.21
2022-10-31T05:25:22.788Z,12.23
2022-10-31T05:27:51.432Z,12.25
2022-10-31T05:30:21.136Z,12.26
2022-10-31T05:32:49.244Z,12.26
2022-10-31T05:35:18.334Z,12.26
2022-10-31T05:37:44.894Z,12.28
2022-10-31T05:40:13.726Z,12.28
2022-10-31T05:42:41.409Z,12.28
2022-10-31T05:45:13.629Z,12.30
2022-10-31T05:47:40.672Z,12.31
2022-10-31T05:50:08.579Z,12.41
2022-10-31T05:52:35.536Z,12.69
2022-10-31T05:55:02.145Z,13.28
2022-10-31T05:57:30.360Z,13.73
2022-10-31T05:59:56.946Z,14.04
2022-10-31T06:02:23.508Z,14.22
2022-10-31T06:04:50.159Z,14.45
2022-10-31T06:07:16.790Z,14.62
2022-10-31T06:09:43.313Z,14.73
2022-10-31T06:12:10.026Z,14.84
2022-10-31T06:14:36.528Z,14.85
2022-10-31T06:17:03.049Z,14.84
2022-10-31T06:19:29.569Z,14.87
2022-10-31T06:21:56.121Z,14.87
2022-10-31T06:24:22.698Z,14.89
2022-10-31T06:26:49.305Z,14.90
2022-10-31T06:29:15.851Z,14.99
2022-10-31T06:31:42.352Z,15.01
2022-10-31T06:34:09.106Z,15.03
2022-10-31T06:36:35.638Z,15.09
2022-10-31T06:39:02.167Z,15.15
2022-10-31T06:41:28.681Z,15.19
2022-10-31T06:43:55.208Z,15.18
2022-10-31T06:46:21.792Z,15.11
2022-10-31T06:48:48.353Z,15.07
2022-10-31T06:51:14.887Z,15.03
2022-10-31T06:53:41.480Z,15.03
2022-10-31T06:56:08.237Z,15.09
2022-10-31T06:58:34.814Z,15.16
2022-10-31T07:01:01.782Z,15.21
2022-10-31T07:03:28.667Z,15.23
2022-10-31T07:05:58.675Z,15.11
2022-10-31T07:08:25.570Z,14.85
2022-10-31T07:10:54.497Z,14.62
2022-10-31T07:13:26.401Z,14.43
2022-10-31T07:16:01.535Z,14.27
2022-10-31T07:18:28.557Z,14.29
2022-10-31T07:20:55.268Z,14.18
2022-10-31T07:23:22.710Z,14.12
2022-10-31T07:25:49.247Z,14.08
2022-10-31T07:28:15.767Z,14.09
2022-10-31T07:30:42.379Z,14.08
2022-10-31T07:33:09.598Z,14.08
2022-10-31T07:35:36.272Z,14.10
2022-10-31T07:38:14.206Z,14.08
2022-10-31T07:40:41.934Z,14.07
2022-10-31T07:43:13.993Z,14.07
2022-10-31T07:45:41.588Z,14.10
2022-10-31T07:48:08.133Z,14.19
2022-10-31T07:50:37.822Z,14.35
2022-10-31T07:53:09.732Z,14.56
2022-10-31T07:55:37.010Z,14.76
2022-10-31T07:58:06.703Z,14.94
2022-10-31T08:00:35.646Z,14.92
2022-10-31T08:03:07.732Z,14.91
2022-10-31T08:05:34.679Z,14.78
2022-10-31T08:08:01.563Z,14.78
2022-10-31T08:10:28.598Z,14.82
2022-10-31T08:13:06.888Z,14.93
2022-10-31T08:15:35.093Z,14.97
2022-10-31T08:18:03.200Z,14.97
2022-10-31T08:20:30.007Z,15.02
2022-10-31T08:23:02.111Z,15.06
2022-10-31T08:25:32.347Z,15.00
2022-10-31T08:28:02.890Z,15.08
2022-10-31T08:30:32.718Z,15.11
2022-10-31T08:33:04.547Z,15.16
2022-10-31T08:35:33.048Z,15.15
2022-10-31T08:38:00.816Z,15.17
2022-10-31T08:40:29.547Z,15.39
2022-10-31T08:42:59.526Z,15.49
2022-10-31T08:45:26.327Z,15.56
2022-10-31T08:47:52.914Z,15.59
2022-10-31T08:50:19.934Z,15.57
2022-10-31T08:53:04.040Z,15.53
2022-10-31T08:55:33.207Z,15.48
2022-10-31T08:58:00.494Z,15.51
2022-10-31T09:00:27.414Z,15.66
2022-10-31T09:02:58.788Z,15.75
2022-10-31T09:05:26.223Z,15.80
2022-10-31T09:07:56.108Z,15.81
2022-10-31T09:10:22.701Z,15.81
2022-10-31T09:12:59.163Z,15.87
2022-10-31T09:15:27.076Z,15.96
2022-10-31T09:17:53.905Z,16.07
2022-10-31T09:20:21.296Z,16.14
2022-10-31T09:22:47.823Z,16.22
2022-10-31T09:25:14.846Z,16.22
2022-10-31T09:27:41.416Z,16.22
2022-10-31T09:30:08.363Z,16.20
2022-10-31T09:32:34.857Z,16.23
2022-10-31T09:35:01.563Z,16.23
2022-10-31T09:37:28.153Z,16.26
2022-10-31T09:39:54.727Z,16.28
2022-10-31T09:42:45.008Z,16.34
2022-10-31T09:45:26.215Z,16.48
2022-10-31T09:47:55.819Z,16.56
2022-10-31T09:50:48.542Z,16.62
2022-10-31T09:53:33.909Z,16.67
2022-10-31T09:56:01.497Z,16.74
2022-10-31T09:58:32.111Z,16.94
2022-10-31T10:01:04.222Z,16.96
2022-10-31T10:03:43.843Z,16.95
2022-10-31T10:06:19.837Z,17.20
2022-10-31T10:08:46.457Z,17.50
2022-10-31T10:11:25.060Z,17.66
2022-10-31T10:14:36.213Z,17.77
2022-10-31T10:17:22.869Z,17.88
2022-10-31T10:20:11.579Z,17.94
2022-10-31T10:22:47.201Z,17.97
2022-10-31T10:25:24.528Z,17.99
2022-10-31T10:28:03.501Z,17.94
2022-10-31T10:30:39.152Z,17.87
2022-10-31T10:33:12.309Z,17.77
2022-10-31T10:35:59.073Z,17.67
2022-10-31T10:38:46.510Z,17.54
2022-10-31T10:41:24.295Z,17.46
2022-10-31T10:43:52.352Z,17.42
2022-10-31T10:46:38.959Z,17.31
2022-10-31T10:49:19.732Z,17.25
2022-10-31T10:55:16.898Z,17.18
2022-10-31T10:57:47.184Z,17.12
2022-10-31T11:00:23.194Z,17.04
2022-10-31T11:02:50.487Z,17.10
2022-10-31T11:05:31.240Z,17.08
2022-10-31T11:07:57.792Z,17.04
2022-10-31T11:10:24.800Z,17.03
2022-10-31T11:13:12.961Z,16.99
2022-10-31T11:16:04.290Z,16.96
2022-10-31T11:18:34.096Z,16.97
2022-10-31T11:21:06.431Z,16.93
2022-10-31T11:23:33.972Z,16.91
2022-10-31T11:26:05.947Z,16.95
2022-10-31T11:28:35.898Z,17.04
2022-10-31T11:31:11.957Z,17.11
2022-10-31T11:33:50.374Z,17.19
2022-10-31T11:36:24.983Z,17.32
2022-10-31T11:38:53.426Z,17.36
2022-10-31T11:41:26.758Z,17.50
2022-10-31T11:43:58.276Z,17.57
2022-10-31T11:46:38.371Z,17.55
2022-10-31T11:49:06.445Z,17.54
2022-10-31T11:51:35.786Z,17.49
2022-10-31T11:54:04.774Z,17.51
2022-10-31T11:56:41.910Z,17.54
2022-10-31T11:59:21.877Z,17.51
2022-10-31T12:01:51.497Z,17.52
2022-10-31T12:04:18.517Z,17.60
2022-10-31T12:06:47.391Z,17.78
2022-10-31T12:09:21.952Z,17.93
2022-10-31T12:11:57.527Z,18.01
2022-10-31T12:14:34.887Z,18.15
2022-10-31T12:17:14.570Z,18.35
2022-10-31T12:20:01.013Z,18.54
2022-10-31T12:22:44.976Z,18.73
2022-10-31T12:25:24.178Z,18.90
2022-10-31T12:27:59.940Z,18.97
2022-10-31T12:30:55.566Z,19.07
2022-10-31T12:33:55.749Z,19.16
2022-10-31T12:36:53.819Z,19.14
2022-10-31T12:39:27.000Z,19.21
2022-10-31T12:42:43.112Z,19.32
2022-10-31T12:45:27.921Z,19.34
2022-10-31T12:48:22.072Z,19.41
2022-10-31T12:50:58.590Z,19.45
2022-10-31T12:53:50.093Z,19.38
2022-10-31T12:56:31.798Z,19.46
2022-10-31T12:59:28.121Z,19.59
2022-10-31T13:02:00.770Z,19.70
2022-10-31T13:04:49.630Z,19.72
2022-10-31T13:07:42.186Z,19.65
2022-10-31T13:10:20.631Z,19.68
2022-10-31T13:12:51.400Z,19.80
2022-10-31T13:15:25.460Z,19.89
2022-10-31T13:17:56.712Z,19.87
2022-10-31T13:20:33.136Z,19.80
2022-10-31T13:23:49.869Z,19.71
2022-10-31T13:26:29.123Z,19.82
2022-10-31T13:29:06.528Z,19.91
2022-10-31T13:31:34.413Z,20.07
2022-10-31T13:34:20.401Z,20.23
2022-10-31T13:36:57.685Z,20.50
2022-10-31T13:40:06.127Z,20.87
2022-10-31T13:42:46.742Z,21.25
2022-10-31T13:45:19.713Z,21.38
2022-10-31T13:48:15.891Z,21.20
2022-10-31T13:50:44.748Z,20.97
2022-10-31T13:53:24.323Z,20.71
2022-10-31T13:56:05.940Z,20.45
2022-10-31T13:58:33.046Z,20.27
2022-10-31T14:01:26.081Z,20.07
2022-10-31T14:04:20.799Z,19.91
2022-10-31T14:07:16.154Z,19.76
2022-10-31T14:10:21.450Z,19.70
2022-10-31T14:12:49.878Z,19.66
2022-10-31T14:15:22.413Z,19.64
2022-10-31T14:17:55.355Z,19.85
2022-10-31T14:20:42.636Z,20.14
2022-10-31T14:23:34.904Z,20.77
2022-10-31T14:26:27.722Z,21.17
2022-10-31T14:28:57.490Z,21.71
2022-10-31T14:31:43.251Z,22.10
2022-10-31T14:34:12.690Z,22.34
2022-10-31T14:36:57.497Z,22.20
2022-10-31T14:39:42.550Z,21.79
2022-10-31T14:42:17.890Z,21.49
2022-10-31T14:45:03.216Z,21.18
2022-10-31T14:47:29.806Z,20.95
2022-10-31T14:50:31.810Z,20.68
2022-10-31T14:53:03.009Z,20.50
2022-10-31T14:55:30.456Z,20.37
2022-10-31T14:58:01.214Z,20.28
2022-10-31T15:00:30.425Z,20.16
2022-10-31T15:03:31.056Z,20.03
2022-10-31T15:06:01.647Z,19.96
2022-10-31T15:08:46.931Z,19.85
2022-10-31T15:11:25.829Z,19.75
2022-10-31T15:13:54.779Z,19.63
2022-10-31T15:16:41.511Z,19.49
2022-10-31T15:19:21.349Z,19.37
2022-10-31T15:21:48.145Z,19.27
2022-10-31T15:24:22.410Z,19.17
2022-10-31T15:26:51.991Z,19.07
2022-10-31T15:29:23.543Z,18.94
2022-10-31T15:32:14.015Z,18.83
2022-10-31T15:34:43.471Z,18.72
2022-10-31T15:37:18.212Z,18.64
2022-10-31T15:39:46.040Z,18.61
2022-10-31T15:42:33.741Z,18.51
2022-10-31T15:45:17.103Z,18.48
2022-10-31T15:48:08.779Z,18.41
2022-10-31T15:50:38.293Z,18.28
2022-10-31T15:53:15.298Z,18.17
2022-10-31T15:55:50.268Z,18.07
2022-10-31T15:58:18.717Z,17.97
2022-10-31T16:00:45.581Z,17.85
2022-10-31T16:03:15.208Z,17.74
2022-10-31T16:05:47.008Z,17.64
2022-10-31T16:08:31.895Z,17.56
2022-10-31T16:11:07.308Z,17.44
2022-10-31T16:13:38.289Z,17.33
2022-10-31T16:19:02.664Z,17.04
2022-10-31T16:21:36.536Z,16.89
2022-10-31T16:24:15.581Z,16.76
2022-10-31T16:26:42.698Z,16.65
2022-10-31T16:29:26.821Z,16.54
2022-10-31T16:31:53.355Z,16.47
2022-10-31T16:34:26.903Z,16.38
2022-10-31T16:36:54.147Z,16.31
2022-10-31T16:39:21.090Z,16.25
2022-10-31T16:41:51.487Z,16.18
2022-10-31T16:44:22.434Z,16.12
2022-10-31T16:46:49.110Z,16.05
2022-10-31T16:49:16.725Z,15.99
2022-10-31T16:51:43.910Z,15.93
2022-10-31T16:54:11.771Z,15.86
2022-10-31T16:56:39.833Z,15.83
2022-10-31T16:59:15.868Z,15.76
2022-10-31T17:01:48.643Z,15.71
2022-10-31T17:04:15.729Z,15.66
2022-10-31T17:06:43.263Z,15.59
2022-10-31T17:09:09.890Z,15.56
2022-10-31T17:11:37.221Z,15.54
2022-10-31T17:14:05.348Z,15.52
2022-10-31T17:16:31.892Z,15.48
2022-10-31T17:18:58.453Z,15.48
2022-10-31T17:21:27.940Z,15.48
2022-10-31T17:23:54.605Z,15.47
2022-10-31T17:26:21.471Z,15.43
2022-10-31T17:28:48.084Z,15.39
2022-10-31T17:31:22.672Z,15.35
2022-10-31T17:33:50.068Z,15.33
2022-10-31T17:36:16.918Z,15.30
2022-10-31T17:38:43.607Z,15.26
2022-10-31T17:41:11.436Z,15.22
2022-10-31T17:43:38.414Z,15.19
2022-10-31T17:46:05.775Z,15.15
2022-10-31T17:48:35.353Z,15.14
2022-10-31T17:51:03.614Z,15.09
2022-10-31T17:53:31.450Z,15.04
2022-10-31T17:56:16.371Z,14.97
2022-10-31T17:58:43.048Z,14.98
2022-10-31T18:01:18.140Z,14.96
2022-10-31T18:03:45.195Z,14.93
2022-10-31T18:06:14.405Z,14.94
2022-10-31T18:08:41.413Z,14.93
2022-10-31T18:11:17.861Z,14.89
2022-10-31T18:13:44.486Z,14.88
2022-10-31T18:16:13.578Z,14.86
2022-10-31T18:18:40.493Z,14.82
2022-10-31T18:21:07.138Z,14.79
2022-10-31T18:23:33.997Z,14.76
2022-10-31T18:26:00.537Z,14.74
2022-10-31T18:28:27.255Z,14.72
2022-10-31T18:30:53.884Z,14.69
2022-10-31T18:33:20.523Z,14.68
2022-10-31T18:35:47.032Z,14.67
2022-10-31T18:38:13.557Z,14.64
2022-10-31T18:40:40.128Z,14.62
2022-10-31T18:43:06.668Z,14.60
2022-10-31T18:45:45.920Z,14.60
2022-10-31T18:48:14.648Z,14.58
2022-10-31T18:50:41.836Z,14.58
2022-10-31T18:53:08.411Z,14.57
2022-10-31T18:55:39.908Z,14.55
2022-10-31T18:58:07.988Z,14.56
2022-10-31T19:00:34.518Z,14.57
2022-10-31T19:03:01.478Z,14.60
2022-10-31T19:05:28.460Z,14.60
2022-10-31T19:07:54.963Z,14.61
2022-10-31T19:10:21.477Z,14.59
2022-10-31T19:12:48.003Z,14.58
2022-10-31T19:15:14.593Z,14.56
2022-10-31T19:17:41.172Z,14.56
2022-10-31T19:20:08.400Z,14.53
2022-10-31T19:22:34.922Z,14.50
2022-10-31T19:25:05.031Z,14.46
2022-10-31T19:27:35.839Z,14.45
2022-10-31T19:30:02.442Z,14.43
2022-10-31T19:32:28.963Z,14.41
2022-10-31T19:34:55.453Z,14.41
2022-10-31T19:37:22.093Z,14.38
2022-10-31T19:39:48.592Z,14.39
2022-10-31T19:42:15.111Z,14.39
2022-10-31T19:44:41.702Z,14.40
2022-10-31T19:47:08.227Z,14.41
2022-10-31T19:49:34.710Z,14.42
2022-10-31T19:52:01.312Z,14.44
2022-10-31T19:54:27.865Z,14.45
2022-10-31T19:56:54.414Z,14.44
2022-10-31T19:59:21.103Z,14.42
2022-10-31T20:01:47.727Z,14.43
2022-10-31T20:04:14.397Z,14.41
2022-10-31T20:06:41.660Z,14.43
2022-10-31T20:09:13.110Z,14.44
2022-10-31T20:11:40.520Z,14.47
2022-10-31T20:14:08.829Z,14.49
2022-10-31T20:16:35.399Z,14.48
2022-10-31T20:19:02.015Z,14.48
2022-10-31T20:21:31.056Z,14.50
2022-10-31T20:24:02.741Z,14.52
2022-10-31T20:26:30.937Z,14.53
2022-10-31T20:28:58.857Z,14.55
2022-10-31T20:31:28.393Z,14.58
2022-10-31T20:33:55.883Z,14.61
2022-10-31T20:36:23.440Z,14.65
2022-10-31T20:38:51.642Z,14.67
2022-10-31T20:41:18.273Z,14.71
2022-10-31T20:43:45.193Z,14.75
2022-10-31T20:46:15.219Z,14.78
2022-10-31T20:48:42.364Z,14.80
2022-10-31T20:51:13.870Z,14.81
2022-10-31T20:53:40.730Z,14.83
2022-10-31T20:56:09.846Z,14.86
2022-10-31T20:58:37.685Z,14.88
2022-10-31T21:01:05.925Z,14.91
2022-10-31T21:03:32.782Z,14.96
2022-10-31T21:06:01.710Z,14.98
2022-10-31T21:08:31.004Z,15.01
2022-10-31T21:10:58.838Z,15.05
2022-10-31T21:13:25.835Z,15.10
2022-10-31T21:16:03.025Z,15.12
2022-10-31T21:18:30.076Z,15.14
2022-10-31T21:20:56.710Z,15.17
2022-10-31T21:23:23.569Z,15.19
2022-10-31T21:25:50.264Z,15.21
2022-10-31T21:28:16.999Z,15.24
2022-10-31T21:30:45.843Z,15.23
2022-10-31T21:33:12.826Z,15.27
2022-10-31T21:35:39.304Z,15.32
2022-10-31T21:38:05.902Z,15.36
2022-10-31T21:40:32.551Z,15.38
2022-10-31T21:42:59.318Z,15.40
2022-10-31T21:45:26.099Z,15.43
2022-10-31T21:47:52.674Z,15.51
2022-10-31T21:50:19.333Z,15.61
2022-10-31T21:52:45.829Z,15.76
2022-10-31T21:55:12.321Z,16.02
2022-10-31T21:57:39.081Z,16.32
2022-10-31T22:00:09.044Z,16.60
2022-10-31T22:02:36.883Z,16.93
2022-10-31T22:05:04.184Z,17.10
2022-10-31T22:07:32.403Z,17.21
2022-10-31T22:09:58.941Z,17.35
2022-10-31T22:12:25.480Z,17.39
2022-10-31T22:14:52.123Z,17.36
2022-10-31T22:17:19.100Z,17.30
2022-10-31T22:19:45.631Z,17.22
2022-10-31T22:22:13.145Z,17.15
2022-10-31T22:24:39.676Z,17.07
2022-10-31T22:27:06.182Z,16.97
2022-10-31T22:29:32.698Z,16.92
2022-10-31T22:32:00.548Z,16.83
2022-10-31T22:34:28.305Z,16.80
2022-10-31T22:36:56.364Z,16.73
2022-10-31T22:39:22.980Z,16.69
2022-10-31T22:41:49.515Z,16.66
2022-10-31T22:44:16.045Z,16.63
2022-10-31T22:46:42.577Z,16.61
2022-10-31T22:49:14.968Z,16.58
2022-10-31T22:51:43.797Z,16.56
2022-10-31T22:54:16.614Z,16.54
2022-10-31T22:56:43.121Z,16.56
2022-10-31T22:59:13.233Z,16.57
2022-10-31T23:01:39.776Z,16.55
2022-10-31T23:04:06.609Z,16.54
2022-10-31T23:06:33.400Z,16.53
2022-10-31T23:09:01.538Z,16.51
2022-10-31T23:11:40.595Z,16.46
2022-10-31T23:14:15.823Z,16.50
2022-10-31T23:16:50.702Z,16.51
2022-10-31T23:19:20.426Z,16.52
2022-10-31T23:21:55.812Z,16.51
2022-10-31T23:24:24.618Z,16.53
2022-10-31T23:27:07.552Z,16.52
2022-10-31T23:29:38.884Z,16.46
2022-10-31T23:32:07.790Z,16.46
2022-10-31T23:34:34.300Z,16.49
2022-10-31T23:37:00.993Z,16.52
2022-10-31T23:39:27.557Z,16.52
2022-10-31T23:41:54.235Z,16.54
2022-10-31T23:44:20.815Z,16.56
2022-10-31T23:46:47.556Z,16.58
2022-10-31T23:49:14.116Z,16.62
2022-10-31T23:51:40.786Z,16.66
2022-10-31T23:54:07.978Z,16.69
2022-10-31T23:56:34.580Z,16.72
2022-10-31T23:59:01.949Z,16.74
